Time;durP1;ratioP1;P1;durP2;ratioP2;P2;SDS_P1;SDS_P2;PMS_P1;PMS_P2;Temp;Humidity;BMP_temperature;BMP_pressure;BME280_temperature;BME280_humidity;BME280_pressure;Samples;Min_cycle;Max_cycle;Signal;HPM_P1;HPM_P2
2023/01/05 00:01:32;;;;;;;;;;;;;;;;;;5021732;28;92147;-38
2023/01/05 00:03:58;;;;;;;;;;;;;;;;;;5019341;28;92030;-38
2023/01/05 00:06:23;;;;;;;;;;;;;;;;;;5019205;28;92194;-38
2023/01/05 00:08:49;;;;;;;;;;;;;;;;;;5019658;28;92450;-39
2023/01/05 00:24:58;;;;;;;;;;;;;;;;;;5024963;28;92153;-38
2023/01/05 00:27:24;;;;;;;;;;;;;;;;;;5022645;28;92025;-38
2023/01/05 00:29:50;;;;;;;;;;;;;;;;;;5022115;28;93411;-38
2023/01/05 00:32:16;;;;;;;;;;;;;;;;;;5022741;28;92316;-38
2023/01/05 00:34:42;;;;;;;;;;;;;;;;;;5023311;28;92026;-38
2023/01/05 00:37:07;;;;;;;;;;;;;;;;;;5022142;28;92061;-38
2023/01/05 00:39:33;;;;;;;;;;;;;;;;;;5022569;28;92225;-38
2023/01/05 00:41:59;;;;;;;;;;;;;;;;;;5021407;28;93057;-38
2023/01/05 00:44:25;;;;;;;;;;;;;;;;;;5021818;28;93034;-38
2023/01/05 00:46:51;;;;;;;;;;;;;;;;;;5025565;28;92292;-38
2023/01/05 00:49:17;;;;;;;;;;;;;;;;;;5022004;28;93184;-38
2023/01/05 00:51:43;;;;;;;;;;;;;;;;;;5022434;28;92357;-38
2023/01/05 00:54:08;;;;;;;;;;;;;;;;;;5022410;28;91913;-38
2023/01/05 00:56:34;;;;;;;;;;;;;;;;;;5021798;28;93222;-38
2023/01/05 00:59:00;;;;;;;;;;;;;;;;;;5022780;28;91418;-38
2023/01/05 01:01:26;;;;;;;;;;;;;;;;;;5021922;28;92060;-38
2023/01/05 01:03:52;;;;;;;;;;;;;;;;;;5021818;28;92062;-38
2023/01/05 01:06:18;;;;;;;;;;;;;;;;;;5021568;28;93050;-38
2023/01/05 01:08:44;;;;;;;;;;;;;;;;;;5024777;28;92886;-38
2023/01/05 01:11:10;;;;;;;;;;;;;;;;;;5021849;28;92282;-38
2023/01/05 01:13:37;;;;;;;;;;;;;;;;;;5022044;28;91976;-38
2023/01/05 01:16:03;;;;;;;;;;;;;;;;;;5021417;28;93304;-38
2023/01/05 01:18:29;;;;;;;;;;;;;;;;;;5021772;28;92240;-38
2023/01/05 01:20:55;;;;;;;;;;;;;;;;;;5022028;28;92120;-38
2023/01/05 01:23:21;;;;;;;;;;;;;;;;;;5021939;28;92415;-38
2023/01/05 01:25:47;;;;;;;;;;;;;;;;;;5021764;28;92182;-38
2023/01/05 01:28:12;;;;;;;;;;;;;;;;;;5021904;28;92043;-38
2023/01/05 01:30:38;;;;;;;;;;;;;;;;;;5023899;28;93972;-38
2023/01/05 01:33:04;;;;;;;;;;;;;;;;;;5021599;28;92927;-38
2023/01/05 01:35:30;;;;;;;;;;;;;;;;;;5020057;28;93140;-38
2023/01/05 01:37:56;;;;;;;;;;;;;;;;;;5021575;28;92150;-38
2023/01/05 01:40:22;;;;;;;;;;;;;;;;;;5021536;28;92034;-38
2023/01/05 01:42:48;;;;;;;;;;;;;;;;;;5020757;28;93268;-38
2023/01/05 01:45:14;;;;;;;;;;;;;;;;;;5021707;28;92201;-38
2023/01/05 01:47:39;;;;;;;;;;;;;;;;;;5021975;28;92453;-38
2023/01/05 01:50:05;;;;;;;;;;;;;;;;;;5020687;28;94339;-38
2023/01/05 01:52:31;;;;;;;;;;;;;;;;;;5024388;28;92022;-38
2023/01/05 01:54:57;;;;;;;;;;;;;;;;;;5001697;28;95470;-38
2023/01/05 01:57:23;;;;;;;;;;;;;;;;;;5021277;28;92161;-38
2023/01/05 01:59:49;;;;;;;;;;;;;;;;;;5021495;28;92037;-38
2023/01/05 02:02:15;;;;;;;;;;;;;;;;;;5020551;28;93598;-38
2023/01/05 02:04:41;;;;;;;;;;;;;;;;;;5021233;28;92216;-38
2023/01/05 02:07:06;;;;;;;;;;;;;;;;;;5021414;28;92087;-38
2023/01/05 02:09:32;;;;;;;;;;;;;;;;;;5020552;28;93011;-38
2023/01/05 02:11:58;;;;;;;;;;;;;;;;;;5024597;28;91435;-38
2023/01/05 02:14:24;;;;;;;;;;;;;;;;;;5020427;28;92019;-38
2023/01/05 02:16:50;;;;;;;;;;;;;;;;;;5020919;28;92694;-38
2023/01/05 02:19:16;;;;;;;;;;;;;;;;;;5020606;28;92898;-38
2023/01/05 02:21:42;;;;;;;;;;;;;;;;;;5020393;28;93077;-38
2023/01/05 02:24:07;;;;;;;;;;;;;;;;;;5020835;28;92281;-38
2023/01/05 02:26:33;;;;;;;;;;;;;;;;;;5020954;28;92102;-38
2023/01/05 02:28:59;;;;;;;;;;;;;;;;;;5020348;28;92806;-38
2023/01/05 02:31:25;;;;;;;;;;;;;;;;;;5020819;28;92252;-38
2023/01/05 02:33:54;;;;;;;;;;;;;;;;;;5023414;28;92047;-38
2023/01/05 02:36:20;;;;;;;;;;;;;;;;;;5021376;28;91549;-38
2023/01/05 02:38:46;;;;;;;;;;;;;;;;;;5020307;28;92374;-38
2023/01/05 02:41:12;;;;;;;;;;;;;;;;;;5019756;28;92918;-38
2023/01/05 02:43:37;;;;;;;;;;;;;;;;;;5020132;28;92856;-38
2023/01/05 02:46:03;;;;;;;;;;;;;;;;;;5020292;28;92988;-38
2023/01/05 02:48:29;;;;;;;;;;;;;;;;;;5020038;28;92956;-38
2023/01/05 02:50:59;;;;;;;;;;;;;;;;;;5020331;28;92260;-38
2023/01/05 02:53:25;;;;;;;;;;;;;;;;;;5019974;28;93183;-38
2023/01/05 02:55:51;;;;;;;;;;;;;;;;;;5022928;28;93170;-38
2023/01/05 02:58:17;;;;;;;;;;;;;;;;;;5020551;28;92109;-38
2023/01/05 03:00:43;;;;;;;;;;;;;;;;;;5020281;28;92215;-38
2023/01/05 03:03:09;;;;;;;;;;;;;;;;;;5020493;28;91893;-38
2023/01/05 03:05:35;;;;;;;;;;;;;;;;;;5020366;28;92513;-38
2023/01/05 03:08:06;;;;;;;;;;;;;;;;;;5018715;28;95195;-38
2023/01/05 03:16:04;;;;;;;;;;;;;;;;;;5018662;28;92021;-38
2023/01/05 03:18:30;;;;;;;;;;;;;;;;;;5022564;28;92195;-38
2023/01/05 03:20:56;;;;;;;;;;;;;;;;;;5019711;28;92960;-38
2023/01/05 03:37:05;;;;;;;;;;;;;;;;;;5018583;28;92187;-38
2023/01/05 03:39:31;;;;;;;;;;;;;;;;;;5019584;28;92190;-38
2023/01/05 03:41:57;;;;;;;;;;;;;;;;;;5021935;28;92355;-38
2023/01/05 03:44:23;;;;;;;;;;;;;;;;;;5019234;28;92207;-38
2023/01/05 03:46:48;;;;;;;;;;;;;;;;;;5019778;28;91934;-38
2023/01/05 03:49:16;;;;;;;;;;;;;;;;;;5019093;28;93084;-38
2023/01/05 03:51:42;;;;;;;;;;;;;;;;;;5019957;28;91378;-38
2023/01/05 03:54:08;;;;;;;;;;;;;;;;;;5019311;28;92041;-38
2023/01/05 03:56:34;;;;;;;;;;;;;;;;;;5019135;28;93257;-38
2023/01/05 03:58:59;;;;;;;;;;;;;;;;;;5018208;28;93208;-38
2023/01/05 04:01:25;;;;;;;;;;;;;;;;;;5021861;28;92799;-38
2023/01/05 04:03:51;;;;;;;;;;;;;;;;;;5019608;28;92158;-38
2023/01/05 04:06:17;;;;;;;;;;;;;;;;;;5019418;28;92154;-38
2023/01/05 04:08:43;;;;;;;;;;;;;;;;;;5018894;28;93002;-38
2023/01/05 04:11:09;;;;;;;;;;;;;;;;;;5019268;28;92250;-38
2023/01/05 04:13:35;;;;;;;;;;;;;;;;;;5019203;28;92156;-38
2023/01/05 04:16:01;;;;;;;;;;;;;;;;;;5019281;28;92072;-38
2023/01/05 04:18:27;;;;;;;;;;;;;;;;;;5019279;28;92270;-38
2023/01/05 04:20:53;;;;;;;;;;;;;;;;;;5019446;28;92161;-38
2023/01/05 04:23:18;;;;;;;;;;;;;;;;;;5020853;28;93948;-38
2023/01/05 04:25:44;;;;;;;;;;;;;;;;;;5019124;28;93429;-38
2023/01/05 04:28:10;;;;;;;;;;;;;;;;;;5018753;28;93185;-38
2023/01/05 04:30:36;;;;;;;;;;;;;;;;;;5019102;28;92171;-38
2023/01/05 04:33:02;;;;;;;;;;;;;;;;;;5019023;28;92101;-38
2023/01/05 04:35:28;;;;;;;;;;;;;;;;;;5018483;28;93181;-38
2023/01/05 04:37:54;;;;;;;;;;;;;;;;;;5018972;28;92302;-38
2023/01/05 04:40:20;;;;;;;;;;;;;;;;;;5019443;28;91693;-38
2023/01/05 04:42:45;;;;;;;;;;;;;;;;;;5017836;28;92869;-38
2023/01/05 04:45:11;;;;;;;;;;;;;;;;;;5021987;28;92505;-38
2023/01/05 04:47:37;;;;;;;;;;;;;;;;;;5017459;28;95569;-38
2023/01/05 04:50:03;;;;;;;;;;;;;;;;;;5018876;28;92432;-38
2023/01/05 04:52:29;;;;;;;;;;;;;;;;;;5019099;28;92028;-38
2023/01/05 04:54:55;;;;;;;;;;;;;;;;;;5017775;28;93201;-38
2023/01/05 04:57:21;;;;;;;;;;;;;;;;;;5018700;28;92714;-38
2023/01/05 04:59:47;;;;;;;;;;;;;;;;;;5018824;28;92084;-38
2023/01/05 05:02:12;;;;;;;;;;;;;;;;;;5018133;28;92240;-38
2023/01/05 05:04:38;;;;;;;;;;;;;;;;;;5018951;28;91392;-38
2023/01/05 05:07:04;;;;;;;;;;;;;;;;;;5021519;28;92059;-38
2023/01/05 05:09:30;;;;;;;;;;;;;;;;;;5020294;28;92240;-38
2023/01/05 05:11:56;;;;;;;;;;;;;;;;;;5021491;28;93441;-38
2023/01/05 05:14:22;;;;;;;;;;;;;;;;;;5021489;28;92998;-38
2023/01/05 05:16:48;;;;;;;;;;;;;;;;;;5021978;28;92275;-38
2023/01/05 05:19:14;;;;;;;;;;;;;;;;;;5022101;28;92013;-38
2023/01/05 05:21:39;;;;;;;;;;;;;;;;;;5021428;28;93011;-38
2023/01/05 05:24:05;;;;;;;;;;;;;;;;;;5021775;28;92328;-38
2023/01/05 05:26:31;;;;;;;;;;;;;;;;;;5022099;28;92144;-38
2023/01/05 05:28:58;;;;;;;;;;;;;;;;;;5024842;28;92389;-38
2023/01/05 05:31:23;;;;;;;;;;;;;;;;;;5021577;28;92654;-38
2023/01/05 05:33:49;;;;;;;;;;;;;;;;;;5021252;28;93029;-38
2023/01/05 05:36:16;;;;;;;;;;;;;;;;;;5020878;28;93222;-38
2023/01/05 05:38:42;;;;;;;;;;;;;;;;;;5021249;28;93106;-38
2023/01/05 05:41:08;;;;;;;;;;;;;;;;;;5020939;28;93117;-38
2023/01/05 05:43:34;;;;;;;;;;;;;;;;;;5021548;28;92057;-38
2023/01/05 05:46:00;;;;;;;;;;;;;;;;;;5021424;28;92033;-38
2023/01/05 05:48:26;;;;;;;;;;;;;;;;;;5021318;28;93265;-38
2023/01/05 05:50:52;;;;;;;;;;;;;;;;;;5024470;28;92117;-38
2023/01/05 05:53:18;;;;;;;;;;;;;;;;;;5021087;28;92294;-38
2023/01/05 05:55:43;;;;;;;;;;;;;;;;;;5021405;28;92176;-38
2023/01/05 05:58:09;;;;;;;;;;;;;;;;;;5021320;28;92450;-38
2023/01/05 06:00:35;;;;;;;;;;;;;;;;;;5020262;28;93965;-38
2023/01/05 06:03:01;;;;;;;;;;;;;;;;;;5002791;28;92157;-38
2023/01/05 06:05:27;;;;;;;;;;;;;;;;;;5021212;28;92197;-38
2023/01/05 06:07:53;;;;;;;;;;;;;;;;;;5020592;28;92426;-38
2023/01/05 06:10:19;;;;;;;;;;;;;;;;;;5024069;28;92295;-38
2023/01/05 06:12:44;;;;;;;;;;;;;;;;;;5020600;28;93151;-38
2023/01/05 06:15:11;;;;;;;;;;;;;;;;;;5021077;28;92366;-38
2023/01/05 06:17:36;;;;;;;;;;;;;;;;;;5021512;28;93177;-38
2023/01/05 06:20:02;;;;;;;;;;;;;;;;;;5019922;28;93074;-38
2023/01/05 06:22:28;;;;;;;;;;;;;;;;;;5020755;28;92238;-38
2023/01/05 06:24:54;;;;;;;;;;;;;;;;;;5020253;28;93017;-38
2023/01/05 06:27:20;;;;;;;;;;;;;;;;;;5020406;28;93068;-38
2023/01/05 06:29:46;;;;;;;;;;;;;;;;;;5021020;28;92228;-38
2023/01/05 06:32:12;;;;;;;;;;;;;;;;;;5023400;28;92532;-38
2023/01/05 06:34:38;;;;;;;;;;;;;;;;;;5020772;28;92256;-38
2023/01/05 06:37:05;;;;;;;;;;;;;;;;;;5020857;28;92082;-38
2023/01/05 06:39:31;;;;;;;;;;;;;;;;;;5019936;28;94880;-38
2023/01/05 06:41:57;;;;;;;;;;;;;;;;;;5020586;28;91442;-38
2023/01/05 06:44:22;;;;;;;;;;;;;;;;;;5020656;28;92112;-38
2023/01/05 06:46:48;;;;;;;;;;;;;;;;;;5020088;28;93140;-38
2023/01/05 06:49:14;;;;;;;;;;;;;;;;;;5019851;28;93220;-38
2023/01/05 06:51:40;;;;;;;;;;;;;;;;;;5020311;28;93434;-38
2023/01/05 06:54:06;;;;;;;;;;;;;;;;;;5022761;28;94414;-38
2023/01/05 06:56:32;;;;;;;;;;;;;;;;;;5020120;28;93207;-38
2023/01/05 06:58:58;;;;;;;;;;;;;;;;;;5019916;28;93075;-38
2023/01/05 07:01:24;;;;;;;;;;;;;;;;;;5020232;28;92404;-38
2023/01/05 07:03:50;;;;;;;;;;;;;;;;;;5020392;28;91902;-38
2023/01/05 07:06:15;;;;;;;;;;;;;;;;;;5020413;28;92223;-38
2023/01/05 07:08:41;;;;;;;;;;;;;;;;;;5020220;28;92316;-38
2023/01/05 07:11:07;;;;;;;;;;;;;;;;;;5020337;28;92060;-38
2023/01/05 07:13:33;;;;;;;;;;;;;;;;;;5018777;28;94116;-38
2023/01/05 07:15:59;;;;;;;;;;;;;;;;;;5023365;28;92697;-38
2023/01/05 07:18:25;;;;;;;;;;;;;;;;;;5019664;28;92240;-38
2023/01/05 07:20:51;;;;;;;;;;;;;;;;;;5020138;28;92182;-38
2023/01/05 07:23:17;;;;;;;;;;;;;;;;;;5020082;28;92116;-38
2023/01/05 07:25:42;;;;;;;;;;;;;;;;;;5019528;28;92425;-38
2023/01/05 07:28:08;;;;;;;;;;;;;;;;;;5020218;28;92047;-38
2023/01/05 07:30:34;;;;;;;;;;;;;;;;;;5020521;28;91906;-38
2023/01/05 07:33:00;;;;;;;;;;;;;;;;;;5018161;28;93175;-38
2023/01/05 07:35:26;;;;;;;;;;;;;;;;;;5019742;28;92203;-38
2023/01/05 07:37:52;;;;;;;;;;;;;;;;;;5021663;28;92970;-38
2023/01/05 07:40:18;;;;;;;;;;;;;;;;;;5019822;28;92153;-38
2023/01/05 07:42:44;;;;;;;;;;;;;;;;;;5019509;28;92188;-38
2023/01/05 07:45:10;;;;;;;;;;;;;;;;;;5019192;28;93075;-38
2023/01/05 07:47:35;;;;;;;;;;;;;;;;;;5019641;28;92464;-38
2023/01/05 07:50:01;;;;;;;;;;;;;;;;;;5019735;28;92154;-38
2023/01/05 07:52:27;;;;;;;;;;;;;;;;;;5018603;28;94294;-38
2023/01/05 07:54:53;;;;;;;;;;;;;;;;;;5020009;28;91465;-38
2023/01/05 07:57:19;;;;;;;;;;;;;;;;;;5019596;28;92036;-38
2023/01/05 07:59:45;;;;;;;;;;;;;;;;;;5022251;28;93066;-38
2023/01/05 08:02:11;;;;;;;;;;;;;;;;;;5018781;28;92941;-38
2023/01/05 08:04:37;;;;;;;;;;;;;;;;;;5018943;28;92265;-38
2023/01/05 08:07:03;;;;;;;;;;;;;;;;;;5019172;28;92244;-38
2023/01/05 08:12:13;;;;;;;;;;;;;;;;;;5017179;28;92217;-38
2023/01/05 08:14:39;;;;;;;;;;;;;;;;;;5019175;28;92156;-38
2023/01/05 08:17:05;;;;;;;;;;;;;;;;;;5019337;28;92041;-38
2023/01/05 08:19:31;;;;;;;;;;;;;;;;;;5022330;28;92524;-38
2023/01/05 08:21:57;;;;;;;;;;;;;;;;;;5019019;28;92015;-38
2023/01/05 08:24:23;;;;;;;;;;;;;;;;;;5018715;28;92178;-38
2023/01/05 08:26:49;;;;;;;;;;;;;;;;;;5018664;28;93202;-38
2023/01/05 08:29:15;;;;;;;;;;;;;;;;;;5019319;28;92769;-38
2023/01/05 08:31:41;;;;;;;;;;;;;;;;;;5018721;28;93192;-38
2023/01/05 08:34:07;;;;;;;;;;;;;;;;;;5019079;28;92272;-38
2023/01/05 08:36:33;;;;;;;;;;;;;;;;;;5019099;28;92159;-38
2023/01/05 08:39:00;;;;;;;;;;;;;;;;;;5018578;28;92264;-38
2023/01/05 08:41:29;;;;;;;;;;;;;;;;;;5021308;28;92745;-38
2023/01/05 08:43:54;;;;;;;;;;;;;;;;;;5020167;28;92395;-38
2023/01/05 08:46:20;;;;;;;;;;;;;;;;;;5022489;28;92281;-38
2023/01/05 08:48:46;;;;;;;;;;;;;;;;;;5022542;28;92118;-38
2023/01/05 08:51:12;;;;;;;;;;;;;;;;;;5021335;28;94858;-38
2023/01/05 08:53:38;;;;;;;;;;;;;;;;;;5022377;28;92214;-38
2023/01/05 08:56:04;;;;;;;;;;;;;;;;;;5022353;28;92314;-38
2023/01/05 08:58:30;;;;;;;;;;;;;;;;;;5021888;28;92986;-38
2023/01/05 09:00:56;;;;;;;;;;;;;;;;;;5022383;28;92308;-38
2023/01/05 09:03:21;;;;;;;;;;;;;;;;;;5024526;28;92195;-38
2023/01/05 09:05:47;;;;;;;;;;;;;;;;;;5021814;28;92235;-38
2023/01/05 09:08:13;;;;;;;;;;;;;;;;;;5022919;28;93007;-38
2023/01/05 09:10:39;;;;;;;;;;;;;;;;;;5021564;28;92342;-38
2023/01/05 09:13:05;;;;;;;;;;;;;;;;;;5021905;28;92264;-38
2023/01/05 09:15:31;;;;;;;;;;;;;;;;;;5003124;28;95447;-38
2023/01/05 09:17:57;;;;;;;;;;;;;;;;;;5021517;28;93030;-38
2023/01/05 09:20:23;;;;;;;;;;;;;;;;;;5021749;28;92327;-38
2023/01/05 09:22:48;;;;;;;;;;;;;;;;;;5021900;28;93303;-38
2023/01/05 09:25:14;;;;;;;;;;;;;;;;;;5024393;28;94257;-38
2023/01/05 09:27:41;;;;;;;;;;;;;;;;;;5021883;28;92077;-38
2023/01/05 09:30:07;;;;;;;;;;;;;;;;;;5020939;28;93348;-38
2023/01/05 09:32:33;;;;;;;;;;;;;;;;;;5022192;28;91481;-38
2023/01/05 09:34:59;;;;;;;;;;;;;;;;;;5021500;28;91984;-38
2023/01/05 09:37:25;;;;;;;;;;;;;;;;;;5021000;28;94545;-38
2023/01/05 09:39:51;;;;;;;;;;;;;;;;;;5021032;28;93667;-38
2023/01/05 09:42:17;;;;;;;;;;;;;;;;;;5021420;28;93317;-38
2023/01/05 09:44:43;;;;;;;;;;;;;;;;;;5021071;28;92991;-38
2023/01/05 09:47:09;;;;;;;;;;;;;;;;;;5024854;28;92051;-38
2023/01/05 09:49:35;;;;;;;;;;;;;;;;;;5020589;28;93043;-38
2023/01/05 09:52:00;;;;;;;;;;;;;;;;;;5021584;28;92086;-38
2023/01/05 09:54:26;;;;;;;;;;;;;;;;;;5021317;28;93214;-38
2023/01/05 09:56:52;;;;;;;;;;;;;;;;;;5002207;28;95652;-38
2023/01/05 09:59:18;;;;;;;;;;;;;;;;;;5021590;28;92094;-38
2023/01/05 10:01:44;;;;;;;;;;;;;;;;;;5021185;28;92088;-38
2023/01/05 10:04:10;;;;;;;;;;;;;;;;;;5020113;28;93959;-38
2023/01/05 10:06:37;;;;;;;;;;;;;;;;;;5021398;28;91836;-38
2023/01/05 10:09:03;;;;;;;;;;;;;;;;;;5023832;28;92351;-38
2023/01/05 10:14:13;;;;;;;;;;;;;;;;;;5020169;28;92164;-38
2023/01/05 10:16:39;;;;;;;;;;;;;;;;;;5020652;28;93302;-38
2023/01/05 10:19:05;;;;;;;;;;;;;;;;;;5020722;28;92540;-38
2023/01/05 10:21:31;;;;;;;;;;;;;;;;;;5021658;28;91930;-38
2023/01/05 10:23:57;;;;;;;;;;;;;;;;;;5020588;28;92926;-38
2023/01/05 10:26:23;;;;;;;;;;;;;;;;;;5021101;28;92231;-38
2023/01/05 10:28:49;;;;;;;;;;;;;;;;;;5022660;28;93414;-38
2023/01/05 10:31:15;;;;;;;;;;;;;;;;;;5020651;28;92340;-38
2023/01/05 10:33:41;;;;;;;;;;;;;;;;;;5020766;28;92252;-38
2023/01/05 10:36:07;;;;;;;;;;;;;;;;;;5020388;28;93114;-38
2023/01/05 10:38:33;;;;;;;;;;;;;;;;;;5020760;28;92377;-38
2023/01/05 10:40:58;;;;;;;;;;;;;;;;;;5020571;28;92067;-38
2023/01/05 10:43:24;;;;;;;;;;;;;;;;;;5019919;28;93029;-38
2023/01/05 10:45:50;;;;;;;;;;;;;;;;;;5021018;28;91301;-38
2023/01/05 10:48:16;;;;;;;;;;;;;;;;;;5020662;28;92056;-38
2023/01/05 10:50:42;;;;;;;;;;;;;;;;;;5023152;28;93184;-38
2023/01/05 10:53:08;;;;;;;;;;;;;;;;;;5020114;28;92967;-38
2023/01/05 10:55:34;;;;;;;;;;;;;;;;;;5019863;28;93095;-38
2023/01/05 10:58:00;;;;;;;;;;;;;;;;;;5020459;28;92531;-38
2023/01/05 11:00:25;;;;;;;;;;;;;;;;;;5020551;28;92252;-38
2023/01/05 11:02:51;;;;;;;;;;;;;;;;;;5019362;28;93173;-38
2023/01/05 11:05:17;;;;;;;;;;;;;;;;;;5020293;28;92204;-38
2023/01/05 11:07:43;;;;;;;;;;;;;;;;;;5020126;28;92123;-38
2023/01/05 11:10:09;;;;;;;;;;;;;;;;;;5020194;28;92443;-38
2023/01/05 11:12:35;;;;;;;;;;;;;;;;;;5023243;28;92302;-38
2023/01/05 11:15:01;;;;;;;;;;;;;;;;;;5019579;28;93180;-38
2023/01/05 11:17:27;;;;;;;;;;;;;;;;;;5019183;28;93277;-38
2023/01/05 11:19:53;;;;;;;;;;;;;;;;;;5020340;28;92844;-38
2023/01/05 11:22:19;;;;;;;;;;;;;;;;;;5019466;28;93589;-38
2023/01/05 11:24:47;;;;;;;;;;;;;;;;;;5020021;28;92230;-38
2023/01/05 11:27:13;;;;;;;;;;;;;;;;;;5019905;28;92006;-38
2023/01/05 11:29:39;;;;;;;;;;;;;;;;;;5019662;28;93054;-38
2023/01/05 11:32:05;;;;;;;;;;;;;;;;;;5019676;28;92194;-38
2023/01/05 11:34:31;;;;;;;;;;;;;;;;;;5023045;28;92011;-38
2023/01/05 11:36:57;;;;;;;;;;;;;;;;;;5020001;28;92240;-38
2023/01/05 11:39:23;;;;;;;;;;;;;;;;;;5019914;28;93314;-38
2023/01/05 11:41:49;;;;;;;;;;;;;;;;;;5018372;28;94119;-38
2023/01/05 11:44:14;;;;;;;;;;;;;;;;;;5019894;28;92000;-38
2023/01/05 11:46:41;;;;;;;;;;;;;;;;;;5019553;28;91988;-38
2023/01/05 11:49:07;;;;;;;;;;;;;;;;;;5018945;28;94669;-38
2023/01/05 11:51:33;;;;;;;;;;;;;;;;;;5019599;28;92418;-38
2023/01/05 11:53:59;;;;;;;;;;;;;;;;;;5019281;28;93378;-38
2023/01/05 11:56:25;;;;;;;;;;;;;;;;;;5022419;28;93261;-38
2023/01/05 11:58:51;;;;;;;;;;;;;;;;;;5020152;28;91192;-38
2023/01/05 12:01:17;;;;;;;;;;;;;;;;;;5018971;28;92918;-38
2023/01/05 12:03:43;;;;;;;;;;;;;;;;;;5019458;28;92175;-38
2023/01/05 12:06:08;;;;;;;;;;;;;;;;;;5018557;28;93113;-38
2023/01/05 12:08:34;;;;;;;;;;;;;;;;;;5018484;28;94219;-38
2023/01/05 12:11:00;;;;;;;;;;;;;;;;;;5019488;28;92163;-38
2023/01/05 12:13:26;;;;;;;;;;;;;;;;;;5019520;28;91916;-38
2023/01/05 12:15:52;;;;;;;;;;;;;;;;;;5018712;28;93084;-38
2023/01/05 12:18:18;;;;;;;;;;;;;;;;;;5023863;28;92153;-38
2023/01/05 12:20:44;;;;;;;;;;;;;;;;;;5025531;28;93132;-38
2023/01/05 12:23:10;;;;;;;;;;;;;;;;;;5026176;28;91322;-38
2023/01/05 12:25:35;;;;;;;;;;;;;;;;;;5025635;28;92398;-38
2023/01/05 12:28:01;;;;;;;;;;;;;;;;;;5025438;28;92015;-38
2023/01/05 12:30:27;;;;;;;;;;;;;;;;;;5025196;28;93154;-38
2023/01/05 12:32:53;;;;;;;;;;;;;;;;;;5025705;28;93015;-38
2023/01/05 12:35:19;;;;;;;;;;;;;;;;;;5025215;28;93131;-38
2023/01/05 12:37:45;;;;;;;;;;;;;;;;;;5028863;28;92391;-39
2023/01/05 12:40:11;;;;;;;;;;;;;;;;;;5025212;28;92957;-38
2023/01/05 12:42:37;;;;;;;;;;;;;;;;;;5025102;28;92694;-38
2023/01/05 12:45:03;;;;;;;;;;;;;;;;;;5025565;28;92123;-38
2023/01/05 12:47:29;;;;;;;;;;;;;;;;;;5025779;28;92289;-38
2023/01/05 12:49:55;;;;;;;;;;;;;;;;;;5025427;28;92081;-38
2023/01/05 12:52:21;;;;;;;;;;;;;;;;;;5025733;28;92023;-38
2023/01/05 12:54:46;;;;;;;;;;;;;;;;;;5024281;28;93732;-38
2023/01/05 12:57:12;;;;;;;;;;;;;;;;;;5025563;28;92239;-38
2023/01/05 12:59:39;;;;;;;;;;;;;;;;;;5027984;28;92092;-38
2023/01/05 13:02:05;;;;;;;;;;;;;;;;;;5025144;28;92304;-38
2023/01/05 13:04:31;;;;;;;;;;;;;;;;;;5025469;28;91998;-38
2023/01/05 13:06:57;;;;;;;;;;;;;;;;;;5024863;28;93134;-38
2023/01/05 13:09:24;;;;;;;;;;;;;;;;;;5025386;28;92209;-38
2023/01/05 13:11:50;;;;;;;;;;;;;;;;;;5025525;28;93249;-38
2023/01/05 13:14:16;;;;;;;;;;;;;;;;;;5024725;28;93053;-38
2023/01/05 13:16:42;;;;;;;;;;;;;;;;;;5024690;28;92158;-38
2023/01/05 13:19:08;;;;;;;;;;;;;;;;;;5024665;28;93271;-38
2023/01/05 13:21:34;;;;;;;;;;;;;;;;;;5027813;28;93161;-38
2023/01/05 13:23:59;;;;;;;;;;;;;;;;;;5025286;28;92098;-38
2023/01/05 13:26:25;;;;;;;;;;;;;;;;;;5024493;28;93459;-38
2023/01/05 13:28:51;;;;;;;;;;;;;;;;;;5025102;28;92096;-38
2023/01/05 13:31:17;;;;;;;;;;;;;;;;;;5021860;28;92429;-38
2023/01/05 13:33:43;;;;;;;;;;;;;;;;;;5021375;28;93049;-38
2023/01/05 13:36:09;;;;;;;;;;;;;;;;;;5021978;28;91425;-38
2023/01/05 13:38:35;;;;;;;;;;;;;;;;;;5021934;28;93240;-38
2023/01/05 13:41:02;;;;;;;;;;;;;;;;;;5021213;28;93146;-38
2023/01/05 13:43:28;;;;;;;;;;;;;;;;;;5004304;28;96351;-38
2023/01/05 13:45:54;;;;;;;;;;;;;;;;;;5000872;28;92997;-38
2023/01/05 13:48:20;;;;;;;;;;;;;;;;;;5001710;28;92267;-38
2023/01/05 13:50:45;;;;;;;;;;;;;;;;;;5001530;28;92464;-38
2023/01/05 13:53:11;;;;;;;;;;;;;;;;;;5000754;28;93243;-38
2023/01/05 13:55:37;;;;;;;;;;;;;;;;;;5001466;28;92239;-38
2023/01/05 13:58:03;;;;;;;;;;;;;;;;;;5001451;28;92140;-38
2023/01/05 14:00:29;;;;;;;;;;;;;;;;;;5001115;28;92521;-38
2023/01/05 14:02:55;;;;;;;;;;;;;;;;;;5001181;28;92365;-38
2023/01/05 14:05:21;;;;;;;;;;;;;;;;;;5003811;28;91998;-38
2023/01/05 14:07:47;;;;;;;;;;;;;;;;;;5000684;28;93236;-38
2023/01/05 14:10:12;;;;;;;;;;;;;;;;;;5001249;28;92983;-38
2023/01/05 14:12:38;;;;;;;;;;;;;;;;;;5000648;28;93287;-38
2023/01/05 14:15:08;;;;;;;;;;;;;;;;;;5000804;28;92209;-39
2023/01/05 14:17:34;;;;;;;;;;;;;;;;;;5001160;28;92064;-38
2023/01/05 14:20:00;;;;;;;;;;;;;;;;;;5000520;28;93155;-38
2023/01/05 14:22:25;;;;;;;;;;;;;;;;;;5001276;28;92274;-38
2023/01/05 14:24:51;;;;;;;;;;;;;;;;;;5003989;28;91836;-38
2023/01/05 14:27:17;;;;;;;;;;;;;;;;;;5001081;28;92292;-38
2023/01/05 14:29:46;;;;;;;;;;;;;;;;;;5000711;28;92019;-38
2023/01/05 14:32:12;;;;;;;;;;;;;;;;;;4999697;28;94017;-38
2023/01/05 14:34:38;;;;;;;;;;;;;;;;;;5000927;28;92295;-38
2023/01/05 14:37:03;;;;;;;;;;;;;;;;;;5000997;28;92199;-38
2023/01/05 14:39:29;;;;;;;;;;;;;;;;;;5000230;28;93476;-38
2023/01/05 14:41:55;;;;;;;;;;;;;;;;;;5006257;28;92382;-38
2023/01/05 14:44:21;;;;;;;;;;;;;;;;;;5020515;28;92072;-38
2023/01/05 14:46:47;;;;;;;;;;;;;;;;;;5023120;28;92973;-38
2023/01/05 14:49:13;;;;;;;;;;;;;;;;;;5021170;28;91995;-38
2023/01/05 14:51:39;;;;;;;;;;;;;;;;;;5020034;28;93578;-38
2023/01/05 14:54:05;;;;;;;;;;;;;;;;;;5020525;28;92160;-38
2023/01/05 14:56:30;;;;;;;;;;;;;;;;;;5020077;28;92873;-38
2023/01/05 14:58:56;;;;;;;;;;;;;;;;;;5019799;28;92860;-38
2023/01/05 15:01:22;;;;;;;;;;;;;;;;;;5020485;28;92196;-38
2023/01/05 15:03:48;;;;;;;;;;;;;;;;;;5020339;28;92000;-38
2023/01/05 15:06:14;;;;;;;;;;;;;;;;;;5019833;28;93073;-38
2023/01/05 15:08:40;;;;;;;;;;;;;;;;;;5023705;28;92327;-38
2023/01/05 15:11:06;;;;;;;;;;;;;;;;;;5019930;28;93012;-38
2023/01/05 15:13:32;;;;;;;;;;;;;;;;;;5020572;28;91430;-38
2023/01/05 15:15:57;;;;;;;;;;;;;;;;;;5020168;28;92115;-38
2023/01/05 15:18:23;;;;;;;;;;;;;;;;;;5019693;28;92297;-38
2023/01/05 15:20:49;;;;;;;;;;;;;;;;;;5019442;28;93337;-38
2023/01/05 15:23:15;;;;;;;;;;;;;;;;;;5019911;28;94161;-38
2023/01/05 15:25:41;;;;;;;;;;;;;;;;;;5019453;28;93642;-38
2023/01/05 15:28:07;;;;;;;;;;;;;;;;;;5020258;28;92179;-38
2023/01/05 15:30:33;;;;;;;;;;;;;;;;;;5022518;28;92202;-38
2023/01/05 15:32:59;;;;;;;;;;;;;;;;;;5020036;28;92300;-38
2023/01/05 15:35:25;;;;;;;;;;;;;;;;;;5019879;28;91964;-38
2023/01/05 15:37:52;;;;;;;;;;;;;;;;;;5019778;28;92257;-38
2023/01/05 15:40:17;;;;;;;;;;;;;;;;;;5019525;28;92040;-39
2023/01/05 15:42:43;;;;;;;;;;;;;;;;;;5019532;28;92222;-38
2023/01/05 15:45:09;;;;;;;;;;;;;;;;;;5018479;28;94102;-38
2023/01/05 15:47:35;;;;;;;;;;;;;;;;;;5019803;28;92426;-38
2023/01/05 15:50:01;;;;;;;;;;;;;;;;;;5019747;28;92195;-38
2023/01/05 15:52:27;;;;;;;;;;;;;;;;;;5022137;28;92243;-38
2023/01/05 15:54:53;;;;;;;;;;;;;;;;;;5018628;28;91898;-38
2023/01/05 15:57:19;;;;;;;;;;;;;;;;;;5019177;28;93018;-38
2023/01/05 15:59:44;;;;;;;;;;;;;;;;;;5019000;28;91954;-38
2023/01/05 16:02:10;;;;;;;;;;;;;;;;;;5020225;28;92337;-38
2023/01/05 16:04:36;;;;;;;;;;;;;;;;;;5018833;28;92056;-38
2023/01/05 16:07:02;;;;;;;;;;;;;;;;;;5019564;28;92183;-38
2023/01/05 16:09:28;;;;;;;;;;;;;;;;;;5018961;28;93009;-38
2023/01/05 16:11:54;;;;;;;;;;;;;;;;;;5018733;28;94487;-38
2023/01/05 16:14:20;;;;;;;;;;;;;;;;;;5022352;28;92217;-38
2023/01/05 16:16:46;;;;;;;;;;;;;;;;;;5018691;28;94571;-38
2023/01/05 16:19:12;;;;;;;;;;;;;;;;;;5019429;28;92303;-38
2023/01/05 16:21:38;;;;;;;;;;;;;;;;;;5019346;28;92051;-38
2023/01/05 16:24:04;;;;;;;;;;;;;;;;;;5018887;28;93180;-38
2023/01/05 16:26:30;;;;;;;;;;;;;;;;;;5019627;28;91529;-38
2023/01/05 16:28:56;;;;;;;;;;;;;;;;;;5018831;28;92075;-38
2023/01/05 16:31:21;;;;;;;;;;;;;;;;;;5018407;28;93053;-38
2023/01/05 16:33:47;;;;;;;;;;;;;;;;;;5021679;28;92834;-38
2023/01/05 16:36:13;;;;;;;;;;;;;;;;;;5018796;28;93071;-38
2023/01/05 16:38:40;;;;;;;;;;;;;;;;;;5019094;28;92182;-38
2023/01/05 16:41:06;;;;;;;;;;;;;;;;;;5018779;28;93289;-38
2023/01/05 16:43:32;;;;;;;;;;;;;;;;;;5018199;28;93028;-38
2023/01/05 16:45:58;;;;;;;;;;;;;;;;;;5018884;28;92179;-38
2023/01/05 16:48:23;;;;;;;;;;;;;;;;;;5018888;28;92680;-38
2023/01/05 16:50:49;;;;;;;;;;;;;;;;;;5018828;28;92535;-38
2023/01/05 16:53:16;;;;;;;;;;;;;;;;;;5018875;28;92291;-38
2023/01/05 16:55:41;;;;;;;;;;;;;;;;;;5021267;28;93459;-38
2023/01/05 16:58:08;;;;;;;;;;;;;;;;;;5018031;28;93038;-38
2023/01/05 17:00:34;;;;;;;;;;;;;;;;;;5018736;28;92875;-38
2023/01/05 17:03:00;;;;;;;;;;;;;;;;;;5017985;28;92990;-38
2023/01/05 17:05:26;;;;;;;;;;;;;;;;;;5020535;28;92212;-38
2023/01/05 17:07:51;;;;;;;;;;;;;;;;;;5022263;28;91946;-38
2023/01/05 17:10:17;;;;;;;;;;;;;;;;;;5021609;28;92962;-38
2023/01/05 17:12:43;;;;;;;;;;;;;;;;;;5021748;28;92382;-38
2023/01/05 17:15:09;;;;;;;;;;;;;;;;;;5022379;28;91903;-38